Terminal Aerodrome Forecast
Issued by NWS Northern Indiana

Home | Current Version | Previous Version | Text Only | Print | Product List | Glossary Off
Versions: 1 2 3 4 5 6 7 8 9 10 11 12

255
FTUS43 KIWX 201120
TAFFWA
TAF
KFWA 201120Z 2012/2112 20010KT P6SM SCT050 BKN090
     FM201500 24018G28KT P6SM BKN040
      TEMPO 2020/2023 5SM TSRA BKN030CB
     FM210100 29012KT P6SM SCT030=

USA.gov is the U.S. government's official web portal to all federal, state and local government web resources and services.